Guthrie, North Carolina
Current Conditions -  °F | °C
As of 4:54 PM on Friday 28 Nov 2014 (Local Time) from KGSO Reporting Station
Broken Clouds Broken Clouds  
Wind Chill: 36°   Ceiling: 25000
Heat Index: 39°   Visibility: 10mi
Dew Point: 20°   Wind: 5mph
Humidity: 46%   Direction: 300°WNW
Pressure: 30.26"   Gusts: NA
Location:  36.1188°N, 80.075°W
Report Text: KGSO 282154Z 30004KT 10SM FEW200 BKN250 04/M07 A3026 RMK AO2 SLP254 T00391067 $
Loading
Personal Weather Stations






























Interactive Weather Map New forecast layout! Learn more

10-Day Weather Forecast

Advertisements
Track Severe Weather on mobile